sensor_id;sensor_type;location;lat;lon;timestamp;pressure;altitude;pressure_sealevel;temperature;humidity
40940;BME280;26666;50.156;7.700;2023-01-25T00:01:14;102403.47;;;3.18;97.24
40940;BME280;26666;50.156;7.700;2023-01-25T00:06:15;102400.72;;;3.24;98.65
40940;BME280;26666;50.156;7.700;2023-01-25T00:11:17;102389.31;;;3.28;97.67
40940;BME280;26666;50.156;7.700;2023-01-25T00:16:19;102382.56;;;3.18;98.31
40940;BME280;26666;50.156;7.700;2023-01-25T00:21:23;102376.38;;;3.22;98.03
40940;BME280;26666;50.156;7.700;2023-01-25T00:26:28;102385.66;;;3.35;98.04
40940;BME280;26666;50.156;7.700;2023-01-25T00:41:39;102378.00;;;3.28;98.65
40940;BME280;26666;50.156;7.700;2023-01-25T00:46:40;102363.47;;;3.16;98.71
40940;BME280;26666;50.156;7.700;2023-01-25T00:51:42;102357.34;;;3.17;99.16
40940;BME280;26666;50.156;7.700;2023-01-25T00:56:44;102359.50;;;2.98;100.00
40940;BME280;26666;50.156;7.700;2023-01-25T01:01:45;102364.13;;;3.26;99.29
40940;BME280;26666;50.156;7.700;2023-01-25T01:06:47;102357.78;;;3.36;99.03
40940;BME280;26666;50.156;7.700;2023-01-25T01:11:49;102354.50;;;3.28;99.67
40940;BME280;26666;50.156;7.700;2023-01-25T01:16:51;102349.25;;;3.28;99.20
40940;BME280;26666;50.156;7.700;2023-01-25T01:21:52;102342.50;;;3.19;99.18
40940;BME280;26666;50.156;7.700;2023-01-25T01:26:54;102345.47;;;3.41;99.37
40940;BME280;26666;50.156;7.700;2023-01-25T01:31:56;102355.44;;;3.25;99.64
40940;BME280;26666;50.156;7.700;2023-01-25T01:36:57;102351.03;;;3.27;99.95
40940;BME280;26666;50.156;7.700;2023-01-25T01:41:59;102346.03;;;3.16;100.00
40940;BME280;26666;50.156;7.700;2023-01-25T01:47:01;102361.25;;;2.97;100.00
40940;BME280;26666;50.156;7.700;2023-01-25T01:52:07;102347.06;;;3.09;100.00
40940;BME280;26666;50.156;7.700;2023-01-25T01:57:17;102347.38;;;2.95;100.00
40940;BME280;26666;50.156;7.700;2023-01-25T02:02:22;102339.41;;;3.02;100.00
40940;BME280;26666;50.156;7.700;2023-01-25T02:07:33;102343.44;;;3.15;100.00
40940;BME280;26666;50.156;7.700;2023-01-25T02:12:36;102330.47;;;3.12;100.00
40940;BME280;26666;50.156;7.700;2023-01-25T02:17:39;102342.59;;;3.14;100.00
40940;BME280;26666;50.156;7.700;2023-01-25T02:28:17;102345.38;;;3.07;100.00
40940;BME280;26666;50.156;7.700;2023-01-25T02:33:22;102332.97;;;3.16;99.52
40940;BME280;26666;50.156;7.700;2023-01-25T02:38:24;102333.47;;;3.32;100.00
40940;BME280;26666;50.156;7.700;2023-01-25T02:43:30;102332.94;;;3.18;100.00
40940;BME280;26666;50.156;7.700;2023-01-25T02:48:32;102318.75;;;3.28;100.00
40940;BME280;26666;50.156;7.700;2023-01-25T02:53:34;102324.97;;;3.24;100.00
40940;BME280;26666;50.156;7.700;2023-01-25T02:58:36;102334.13;;;3.03;100.00
40940;BME280;26666;50.156;7.700;2023-01-25T03:03:38;102331.44;;;3.08;100.00
40940;BME280;26666;50.156;7.700;2023-01-25T03:08:40;102325.72;;;2.90;100.00
40940;BME280;26666;50.156;7.700;2023-01-25T03:13:42;102322.59;;;3.13;100.00
40940;BME280;26666;50.156;7.700;2023-01-25T03:18:44;102317.25;;;3.20;100.00
40940;BME280;26666;50.156;7.700;2023-01-25T03:23:46;102314.00;;;3.08;100.00
40940;BME280;26666;50.156;7.700;2023-01-25T03:28:48;102305.31;;;3.08;100.00
40940;BME280;26666;50.156;7.700;2023-01-25T03:33:50;102300.28;;;2.99;100.00
40940;BME280;26666;50.156;7.700;2023-01-25T03:38:51;102300.94;;;3.08;100.00
40940;BME280;26666;50.156;7.700;2023-01-25T03:43:53;102296.19;;;2.88;100.00
40940;BME280;26666;50.156;7.700;2023-01-25T03:48:55;102296.91;;;2.95;100.00
40940;BME280;26666;50.156;7.700;2023-01-25T03:53:56;102295.06;;;3.00;99.68
40940;BME280;26666;50.156;7.700;2023-01-25T03:58:58;102286.06;;;3.12;100.00
40940;BME280;26666;50.156;7.700;2023-01-25T04:03:59;102287.72;;;3.16;99.73
40940;BME280;26666;50.156;7.700;2023-01-25T04:09:01;102290.03;;;2.91;100.00
40940;BME280;26666;50.156;7.700;2023-01-25T04:14:02;102290.44;;;3.11;100.00
40940;BME280;26666;50.156;7.700;2023-01-25T04:19:04;102285.44;;;3.02;100.00
40940;BME280;26666;50.156;7.700;2023-01-25T04:24:06;102287.25;;;2.99;100.00
40940;BME280;26666;50.156;7.700;2023-01-25T04:29:09;102282.00;;;3.00;100.00
40940;BME280;26666;50.156;7.700;2023-01-25T04:34:10;102273.38;;;2.96;100.00
40940;BME280;26666;50.156;7.700;2023-01-25T04:39:12;102266.47;;;2.94;100.00
40940;BME280;26666;50.156;7.700;2023-01-25T04:44:14;102260.16;;;3.03;100.00
40940;BME280;26666;50.156;7.700;2023-01-25T04:49:15;102258.66;;;2.92;100.00
40940;BME280;26666;50.156;7.700;2023-01-25T04:54:17;102250.63;;;3.02;100.00
40940;BME280;26666;50.156;7.700;2023-01-25T04:59:18;102239.66;;;2.86;99.84
40940;BME280;26666;50.156;7.700;2023-01-25T05:04:20;102236.38;;;2.78;100.00
40940;BME280;26666;50.156;7.700;2023-01-25T05:09:21;102239.56;;;2.90;100.00
40940;BME280;26666;50.156;7.700;2023-01-25T05:14:23;102242.25;;;2.86;100.00
40940;BME280;26666;50.156;7.700;2023-01-25T05:19:24;102234.19;;;2.96;100.00
40940;BME280;26666;50.156;7.700;2023-01-25T05:24:28;102233.41;;;2.93;100.00
40940;BME280;26666;50.156;7.700;2023-01-25T05:29:36;102233.91;;;2.70;100.00
40940;BME280;26666;50.156;7.700;2023-01-25T05:34:38;102231.66;;;2.54;100.00
40940;BME280;26666;50.156;7.700;2023-01-25T05:39:40;102221.78;;;2.69;100.00
40940;BME280;26666;50.156;7.700;2023-01-25T05:44:42;102233.66;;;2.82;100.00
40940;BME280;26666;50.156;7.700;2023-01-25T05:49:47;102233.09;;;2.68;100.00
40940;BME280;26666;50.156;7.700;2023-01-25T05:54:49;102223.44;;;2.73;100.00
40940;BME280;26666;50.156;7.700;2023-01-25T05:59:50;102223.47;;;2.71;100.00
40940;BME280;26666;50.156;7.700;2023-01-25T06:04:52;102218.94;;;2.78;100.00
40940;BME280;26666;50.156;7.700;2023-01-25T06:09:53;102208.50;;;2.78;100.00
40940;BME280;26666;50.156;7.700;2023-01-25T06:14:54;102209.38;;;2.79;100.00
40940;BME280;26666;50.156;7.700;2023-01-25T06:19:56;102211.94;;;2.80;100.00
40940;BME280;26666;50.156;7.700;2023-01-25T06:24:58;102199.34;;;2.60;100.00
40940;BME280;26666;50.156;7.700;2023-01-25T06:29:59;102201.50;;;2.80;100.00
40940;BME280;26666;50.156;7.700;2023-01-25T06:35:01;102202.53;;;2.73;100.00
40940;BME280;26666;50.156;7.700;2023-01-25T06:40:02;102204.25;;;2.74;100.00
40940;BME280;26666;50.156;7.700;2023-01-25T06:45:04;102197.47;;;2.67;100.00
40940;BME280;26666;50.156;7.700;2023-01-25T06:50:08;102203.03;;;2.89;100.00
40940;BME280;26666;50.156;7.700;2023-01-25T06:55:10;102200.78;;;2.73;100.00
40940;BME280;26666;50.156;7.700;2023-01-25T07:00:12;102199.81;;;2.78;100.00
40940;BME280;26666;50.156;7.700;2023-01-25T07:05:14;102205.25;;;2.68;100.00
40940;BME280;26666;50.156;7.700;2023-01-25T07:10:16;102204.25;;;2.74;100.00
40940;BME280;26666;50.156;7.700;2023-01-25T07:15:18;102209.47;;;2.74;100.00
40940;BME280;26666;50.156;7.700;2023-01-25T07:20:19;102203.41;;;2.72;100.00
40940;BME280;26666;50.156;7.700;2023-01-25T07:25:21;102208.72;;;2.69;100.00
40940;BME280;26666;50.156;7.700;2023-01-25T07:30:23;102202.63;;;2.68;100.00
40940;BME280;26666;50.156;7.700;2023-01-25T07:35:24;102192.47;;;2.56;100.00
40940;BME280;26666;50.156;7.700;2023-01-25T07:40:26;102195.84;;;2.61;100.00
40940;BME280;26666;50.156;7.700;2023-01-25T07:45:27;102192.66;;;2.48;100.00
40940;BME280;26666;50.156;7.700;2023-01-25T07:50:29;102190.72;;;2.56;100.00
40940;BME280;26666;50.156;7.700;2023-01-25T07:55:31;102194.28;;;2.52;100.00
40940;BME280;26666;50.156;7.700;2023-01-25T08:00:32;102195.06;;;2.58;100.00
40940;BME280;26666;50.156;7.700;2023-01-25T08:05:34;102207.16;;;2.62;100.00
40940;BME280;26666;50.156;7.700;2023-01-25T08:10:36;102206.19;;;2.66;100.00
40940;BME280;26666;50.156;7.700;2023-01-25T08:15:38;102208.22;;;2.90;100.00
40940;BME280;26666;50.156;7.700;2023-01-25T08:20:40;102216.16;;;2.86;100.00
40940;BME280;26666;50.156;7.700;2023-01-25T08:25:41;102208.50;;;2.78;100.00
40940;BME280;26666;50.156;7.700;2023-01-25T08:30:43;102209.88;;;2.57;100.00
40940;BME280;26666;50.156;7.700;2023-01-25T08:35:57;102206.16;;;2.67;100.00
40940;BME280;26666;50.156;7.700;2023-01-25T08:41:10;102193.75;;;2.38;100.00
40940;BME280;26666;50.156;7.700;2023-01-25T08:46:14;102199.53;;;2.51;100.00
40940;BME280;26666;50.156;7.700;2023-01-25T08:51:16;102197.91;;;2.47;100.00
40940;BME280;26666;50.156;7.700;2023-01-25T08:56:17;102195.06;;;2.58;100.00
40940;BME280;26666;50.156;7.700;2023-01-25T09:01:19;102194.88;;;2.65;100.00
40940;BME280;26666;50.156;7.700;2023-01-25T09:06:21;102191.88;;;2.43;100.00
40940;BME280;26666;50.156;7.700;2023-01-25T09:11:22;102184.25;;;2.35;100.00
40940;BME280;26666;50.156;7.700;2023-01-25T09:16:24;102181.84;;;2.65;100.00
40940;BME280;26666;50.156;7.700;2023-01-25T09:21:26;102175.47;;;2.40;100.00
40940;BME280;26666;50.156;7.700;2023-01-25T09:26:27;102158.94;;;2.39;100.00
40940;BME280;26666;50.156;7.700;2023-01-25T09:31:31;102161.88;;;2.24;100.00
40940;BME280;26666;50.156;7.700;2023-01-25T09:36:33;102163.84;;;2.53;100.00
40940;BME280;26666;50.156;7.700;2023-01-25T09:46:49;102163.59;;;2.64;100.00
40940;BME280;26666;50.156;7.700;2023-01-25T09:57:30;102158.81;;;2.83;100.00
40940;BME280;26666;50.156;7.700;2023-01-25T10:02:51;102152.03;;;2.74;100.00
40940;BME280;26666;50.156;7.700;2023-01-25T10:07:59;102148.78;;;2.64;100.00
40940;BME280;26666;50.156;7.700;2023-01-25T10:13:10;102132.94;;;2.72;100.00
40940;BME280;26666;50.156;7.700;2023-01-25T10:28:36;102127.75;;;2.70;100.00
40940;BME280;26666;50.156;7.700;2023-01-25T10:33:43;102118.09;;;2.74;100.00
40940;BME280;26666;50.156;7.700;2023-01-25T10:38:46;102107.56;;;2.79;100.00
40940;BME280;26666;50.156;7.700;2023-01-25T10:43:48;102096.78;;;2.56;100.00
40940;BME280;26666;50.156;7.700;2023-01-25T10:48:50;102090.38;;;2.70;100.00
40940;BME280;26666;50.156;7.700;2023-01-25T10:53:58;102075.56;;;2.70;100.00
40940;BME280;26666;50.156;7.700;2023-01-25T10:59:07;102072.53;;;2.87;100.00
40940;BME280;26666;50.156;7.700;2023-01-25T11:04:41;102068.31;;;2.82;100.00
40940;BME280;26666;50.156;7.700;2023-01-25T11:09:44;102070.06;;;2.81;100.00
40940;BME280;26666;50.156;7.700;2023-01-25T11:14:47;102055.06;;;2.89;100.00
40940;BME280;26666;50.156;7.700;2023-01-25T11:25:27;102026.25;;;2.94;100.00
40940;BME280;26666;50.156;7.700;2023-01-25T11:30:29;102027.47;;;2.81;100.00
40940;BME280;26666;50.156;7.700;2023-01-25T11:35:32;102024.22;;;2.71;100.00
40940;BME280;26666;50.156;7.700;2023-01-25T11:46:22;102010.91;;;2.80;100.00
40940;BME280;26666;50.156;7.700;2023-01-25T12:02:08;101971.50;;;2.89;100.00
40940;BME280;26666;50.156;7.700;2023-01-25T12:33:42;101907.59;;;2.73;100.00
40940;BME280;26666;50.156;7.700;2023-01-25T12:38:53;101905.50;;;2.53;100.00
40940;BME280;26666;50.156;7.700;2023-01-25T12:49:39;101890.38;;;2.66;100.00
40940;BME280;26666;50.156;7.700;2023-01-25T12:54:44;101878.63;;;2.82;100.00
40940;BME280;26666;50.156;7.700;2023-01-25T12:59:54;101866.84;;;2.97;100.00
40940;BME280;26666;50.156;7.700;2023-01-25T13:05:24;101853.22;;;2.87;100.00
40940;BME280;26666;50.156;7.700;2023-01-25T13:10:33;101831.38;;;2.90;100.00
40940;BME280;26666;50.156;7.700;2023-01-25T13:15:42;101820.94;;;2.90;100.00
40940;BME280;26666;50.156;7.700;2023-01-25T13:20:48;101822.00;;;2.84;100.00
40940;BME280;26666;50.156;7.700;2023-01-25T13:25:50;101821.50;;;3.00;100.00
40940;BME280;26666;50.156;7.700;2023-01-25T13:30:52;101819.19;;;2.90;100.00
40940;BME280;26666;50.156;7.700;2023-01-25T13:35:54;101809.19;;;3.05;100.00
40940;BME280;26666;50.156;7.700;2023-01-25T13:41:21;101800.53;;;3.03;99.67
40940;BME280;26666;50.156;7.700;2023-01-25T13:46:24;101797.50;;;2.88;100.00
40940;BME280;26666;50.156;7.700;2023-01-25T13:51:29;101783.28;;;2.97;100.00
40940;BME280;26666;50.156;7.700;2023-01-25T13:56:34;101778.03;;;2.99;100.00
40940;BME280;26666;50.156;7.700;2023-01-25T14:01:36;101762.28;;;3.02;100.00
40940;BME280;26666;50.156;7.700;2023-01-25T14:06:38;101760.59;;;2.99;100.00
40940;BME280;26666;50.156;7.700;2023-01-25T14:11:56;101753.72;;;2.96;100.00
40940;BME280;26666;50.156;7.700;2023-01-25T14:22:11;101744.16;;;2.69;100.00
40940;BME280;26666;50.156;7.700;2023-01-25T14:27:13;101739.31;;;2.85;100.00
40940;BME280;26666;50.156;7.700;2023-01-25T14:32:19;101719.53;;;2.76;100.00
40940;BME280;26666;50.156;7.700;2023-01-25T14:37:22;101710.38;;;2.91;100.00
40940;BME280;26666;50.156;7.700;2023-01-25T14:42:27;101711.66;;;3.06;100.00
40940;BME280;26666;50.156;7.700;2023-01-25T14:47:30;101710.06;;;3.02;100.00
40940;BME280;26666;50.156;7.700;2023-01-25T14:52:32;101699.13;;;2.89;100.00
40940;BME280;26666;50.156;7.700;2023-01-25T14:57:36;101698.63;;;2.78;100.00
40940;BME280;26666;50.156;7.700;2023-01-25T15:02:44;101694.91;;;2.56;100.00
40940;BME280;26666;50.156;7.700;2023-01-25T15:08:34;101685.94;;;2.37;100.00
40940;BME280;26666;50.156;7.700;2023-01-25T15:23:47;101679.13;;;2.88;100.00
40940;BME280;26666;50.156;7.700;2023-01-25T15:28:54;101678.25;;;2.89;100.00
40940;BME280;26666;50.156;7.700;2023-01-25T15:33:57;101669.69;;;2.84;100.00
40940;BME280;26666;50.156;7.700;2023-01-25T15:38:59;101673.53;;;2.73;100.00
40940;BME280;26666;50.156;7.700;2023-01-25T15:44:00;101676.66;;;2.85;100.00
40940;BME280;26666;50.156;7.700;2023-01-25T15:49:04;101667.34;;;2.76;100.00
40940;BME280;26666;50.156;7.700;2023-01-25T15:54:07;101656.81;;;2.79;100.00
40940;BME280;26666;50.156;7.700;2023-01-25T15:59:14;101651.44;;;2.84;100.00
40940;BME280;26666;50.156;7.700;2023-01-25T16:04:16;101649.78;;;2.81;100.00
40940;BME280;26666;50.156;7.700;2023-01-25T16:09:23;101655.00;;;2.81;100.00
40940;BME280;26666;50.156;7.700;2023-01-25T16:14:26;101654.53;;;2.68;100.00
40940;BME280;26666;50.156;7.700;2023-01-25T16:19:28;101645.66;;;2.74;100.00
40940;BME280;26666;50.156;7.700;2023-01-25T16:24:30;101639.31;;;2.83;100.00
40940;BME280;26666;50.156;7.700;2023-01-25T16:29:31;101634.63;;;2.66;100.00
40940;BME280;26666;50.156;7.700;2023-01-25T16:34:33;101632.22;;;2.60;100.00
40940;BME280;26666;50.156;7.700;2023-01-25T16:39:34;101626.16;;;2.59;100.00
40940;BME280;26666;50.156;7.700;2023-01-25T16:44:36;101625.25;;;2.59;100.00
40940;BME280;26666;50.156;7.700;2023-01-25T16:49:38;101619.84;;;2.38;100.00
40940;BME280;26666;50.156;7.700;2023-01-25T16:54:40;101627.22;;;2.52;100.00
40940;BME280;26666;50.156;7.700;2023-01-25T16:59:41;101632.53;;;2.49;100.00
40940;BME280;26666;50.156;7.700;2023-01-25T17:04:43;101631.59;;;2.51;100.00
40940;BME280;26666;50.156;7.700;2023-01-25T17:09:44;101622.81;;;2.54;100.00
40940;BME280;26666;50.156;7.700;2023-01-25T17:14:46;101621.16;;;2.23;100.00
40940;BME280;26666;50.156;7.700;2023-01-25T17:19:48;101615.69;;;2.31;100.00
40940;BME280;26666;50.156;7.700;2023-01-25T17:24:49;101622.50;;;2.36;100.00
40940;BME280;26666;50.156;7.700;2023-01-25T17:29:50;101617.00;;;2.46;100.00
40940;BME280;26666;50.156;7.700;2023-01-25T17:34:52;101614.47;;;2.43;100.00
40940;BME280;26666;50.156;7.700;2023-01-25T17:39:53;101607.41;;;2.46;100.00
40940;BME280;26666;50.156;7.700;2023-01-25T17:44:55;101604.56;;;2.54;100.00
40940;BME280;26666;50.156;7.700;2023-01-25T17:49:56;101599.78;;;2.40;100.00
40940;BME280;26666;50.156;7.700;2023-01-25T17:54:58;101601.47;;;2.41;100.00
40940;BME280;26666;50.156;7.700;2023-01-25T17:59:59;101584.94;;;2.42;100.00
40940;BME280;26666;50.156;7.700;2023-01-25T18:05:01;101590.44;;;2.33;100.00
40940;BME280;26666;50.156;7.700;2023-01-25T18:10:03;101575.25;;;2.46;100.00
40940;BME280;26666;50.156;7.700;2023-01-25T18:15:05;101562.41;;;2.40;100.00
40940;BME280;26666;50.156;7.700;2023-01-25T18:20:07;101567.72;;;2.63;100.00
40940;BME280;26666;50.156;7.700;2023-01-25T18:25:31;101558.09;;;2.39;100.00
40940;BME280;26666;50.156;7.700;2023-01-25T18:30:38;101556.19;;;2.44;100.00
40940;BME280;26666;50.156;7.700;2023-01-25T18:35:43;101551.47;;;2.28;100.00
40940;BME280;26666;50.156;7.700;2023-01-25T18:40:44;101546.31;;;2.25;100.00
40940;BME280;26666;50.156;7.700;2023-01-25T18:45:54;101543.53;;;2.31;100.00
40940;BME280;26666;50.156;7.700;2023-01-25T18:51:04;101539.97;;;2.34;100.00
40940;BME280;26666;50.156;7.700;2023-01-25T18:56:10;101534.88;;;2.29;100.00
40940;BME280;26666;50.156;7.700;2023-01-25T19:01:14;101532.97;;;2.36;100.00
40940;BME280;26666;50.156;7.700;2023-01-25T19:06:17;101523.66;;;2.27;100.00
40940;BME280;26666;50.156;7.700;2023-01-25T19:11:20;101523.78;;;2.24;100.00
40940;BME280;26666;50.156;7.700;2023-01-25T19:16:22;101518.75;;;2.18;100.00
40940;BME280;26666;50.156;7.700;2023-01-25T19:21:26;101512.88;;;2.11;100.00
40940;BME280;26666;50.156;7.700;2023-01-25T19:26:28;101494.34;;;2.21;100.00
40940;BME280;26666;50.156;7.700;2023-01-25T19:31:30;101498.94;;;2.12;100.00
40940;BME280;26666;50.156;7.700;2023-01-25T19:36:33;101491.88;;;2.16;100.00
40940;BME280;26666;50.156;7.700;2023-01-25T19:41:36;101483.84;;;2.22;100.00
40940;BME280;26666;50.156;7.700;2023-01-25T19:46:37;101479.56;;;2.20;100.00
40940;BME280;26666;50.156;7.700;2023-01-25T19:51:41;101483.31;;;2.12;100.00
40940;BME280;26666;50.156;7.700;2023-01-25T19:56:45;101476.13;;;2.19;100.00
40940;BME280;26666;50.156;7.700;2023-01-25T20:01:47;101488.69;;;2.06;99.38
40940;BME280;26666;50.156;7.700;2023-01-25T20:06:49;101488.69;;;2.06;100.00
40940;BME280;26666;50.156;7.700;2023-01-25T20:11:53;101484.22;;;2.10;100.00
40940;BME280;26666;50.156;7.700;2023-01-25T20:16:55;101486.16;;;1.76;100.00
40940;BME280;26666;50.156;7.700;2023-01-25T20:21:57;101479.69;;;1.88;100.00
40940;BME280;26666;50.156;7.700;2023-01-25T20:27:00;101478.84;;;1.88;100.00
40940;BME280;26666;50.156;7.700;2023-01-25T20:32:04;101477.81;;;1.93;100.00
40940;BME280;26666;50.156;7.700;2023-01-25T20:37:06;101466.38;;;1.97;100.00
40940;BME280;26666;50.156;7.700;2023-01-25T20:42:07;101450.91;;;1.93;100.00
40940;BME280;26666;50.156;7.700;2023-01-25T20:47:09;101456.16;;;1.63;100.00
40940;BME280;26666;50.156;7.700;2023-01-25T20:52:10;101456.19;;;1.90;100.00
40940;BME280;26666;50.156;7.700;2023-01-25T20:57:12;101439.47;;;1.97;100.00
40940;BME280;26666;50.156;7.700;2023-01-25T21:02:13;101437.56;;;1.75;100.00
40940;BME280;26666;50.156;7.700;2023-01-25T21:07:15;101428.94;;;2.00;100.00
40940;BME280;26666;50.156;7.700;2023-01-25T21:12:16;101418.66;;;1.95;100.00
40940;BME280;26666;50.156;7.700;2023-01-25T21:17:18;101405.66;;;1.94;100.00
40940;BME280;26666;50.156;7.700;2023-01-25T21:22:19;101399.16;;;1.81;100.00
40940;BME280;26666;50.156;7.700;2023-01-25T21:27:21;101384.47;;;1.78;100.00
40940;BME280;26666;50.156;7.700;2023-01-25T21:32:23;101389.59;;;1.81;100.00
40940;BME280;26666;50.156;7.700;2023-01-25T21:37:24;101374.41;;;1.94;100.00
40940;BME280;26666;50.156;7.700;2023-01-25T21:42:26;101368.09;;;1.74;100.00
40940;BME280;26666;50.156;7.700;2023-01-25T21:47:29;101375.09;;;1.72;100.00
40940;BME280;26666;50.156;7.700;2023-01-25T21:52:32;101366.41;;;1.45;100.00
40940;BME280;26666;50.156;7.700;2023-01-25T21:57:36;101363.72;;;1.75;100.00
40940;BME280;26666;50.156;7.700;2023-01-25T22:02:38;101358.94;;;1.34;100.00
40940;BME280;26666;50.156;7.700;2023-01-25T22:07:39;101356.44;;;1.60;100.00
40940;BME280;26666;50.156;7.700;2023-01-25T22:12:41;101351.94;;;1.63;100.00
40940;BME280;26666;50.156;7.700;2023-01-25T22:17:42;101354.06;;;1.78;100.00
40940;BME280;26666;50.156;7.700;2023-01-25T22:22:44;101353.16;;;1.80;100.00
40940;BME280;26666;50.156;7.700;2023-01-25T22:27:51;101343.53;;;1.82;100.00
40940;BME280;26666;50.156;7.700;2023-01-25T22:32:55;101344.22;;;1.87;100.00
40940;BME280;26666;50.156;7.700;2023-01-25T22:37:57;101335.47;;;1.89;100.00
40940;BME280;26666;50.156;7.700;2023-01-25T22:42:59;101336.44;;;1.60;100.00
40940;BME280;26666;50.156;7.700;2023-01-25T22:48:00;101329.78;;;1.76;100.00
40940;BME280;26666;50.156;7.700;2023-01-25T22:53:02;101315.22;;;1.71;100.00
40940;BME280;26666;50.156;7.700;2023-01-25T22:58:03;101307.53;;;1.68;100.00
40940;BME280;26666;50.156;7.700;2023-01-25T23:03:04;101289.31;;;1.66;100.00
40940;BME280;26666;50.156;7.700;2023-01-25T23:08:06;101280.31;;;1.50;100.00
40940;BME280;26666;50.156;7.700;2023-01-25T23:13:07;101265.03;;;1.39;100.00
40940;BME280;26666;50.156;7.700;2023-01-25T23:18:09;101260.44;;;1.72;100.00
40940;BME280;26666;50.156;7.700;2023-01-25T23:23:10;101261.16;;;1.77;100.00
40940;BME280;26666;50.156;7.700;2023-01-25T23:28:12;101250.34;;;1.88;100.00
40940;BME280;26666;50.156;7.700;2023-01-25T23:33:13;101255.09;;;1.52;100.00
40940;BME280;26666;50.156;7.700;2023-01-25T23:38:15;101256.16;;;1.71;100.00
40940;BME280;26666;50.156;7.700;2023-01-25T23:43:16;101253.28;;;1.54;100.00
40940;BME280;26666;50.156;7.700;2023-01-25T23:48:18;101245.59;;;1.49;100.00
40940;BME280;26666;50.156;7.700;2023-01-25T23:53:19;101251.66;;;1.50;100.00
40940;BME280;26666;50.156;7.700;2023-01-25T23:58:22;101241.50;;;1.67;100.00
